Time;durP1;ratioP1;P1;durP2;ratioP2;P2;SDS_P1;SDS_P2;PMS_P1;PMS_P2;Temp;Humidity;BMP_temperature;BMP_pressure;BME280_temperature;BME280_humidity;BME280_pressure;Samples;Min_cycle;Max_cycle;Signal;HPM_P1;HPM_P2
2022/05/12 00:01:46;;;;;;;3.70;0.30;;;12.50;99.90;;;;;;4963473;28;20027;-84
2022/05/12 00:04:11;;;;;;;3.85;0.47;;;12.50;99.90;;;;;;4970282;28;20030;-84
2022/05/12 00:06:36;;;;;;;4.47;0.50;;;12.40;99.90;;;;;;4983066;28;20054;-85
2022/05/12 00:09:02;;;;;;;3.33;0.50;;;12.40;99.90;;;;;;4969581;28;20105;-83
2022/05/12 00:11:30;;;;;;;4.65;0.40;;;12.30;99.90;;;;;;4982789;28;20022;-84
2022/05/12 00:13:56;;;;;;;5.07;1.08;;;12.30;99.90;;;;;;4972400;28;20030;-84
2022/05/12 00:16:21;;;;;;;4.88;0.60;;;12.30;99.90;;;;;;4973113;28;20037;-84
2022/05/12 00:18:47;;;;;;;4.50;0.63;;;12.20;99.90;;;;;;4966169;28;20046;-84
2022/05/12 00:21:12;;;;;;;4.25;0.50;;;12.10;99.90;;;;;;4969588;28;20363;-84
2022/05/12 00:23:38;;;;;;;5.70;0.50;;;12.10;99.90;;;;;;4971940;28;20498;-84
2022/05/12 00:26:03;;;;;;;4.60;0.60;;;12.00;99.90;;;;;;4972212;28;20027;-84
2022/05/12 00:28:29;;;;;;;6.78;0.68;;;12.00;99.90;;;;;;4984151;28;20029;-84
2022/05/12 00:30:57;;;;;;;5.70;0.80;;;12.00;99.90;;;;;;4970565;28;20041;-83
2022/05/12 00:33:26;;;;;;;4.50;0.85;;;11.90;99.90;;;;;;4983541;28;20518;-84
2022/05/12 00:35:52;;;;;;;4.78;0.60;;;11.90;99.90;;;;;;4967432;28;20617;-84
2022/05/12 00:38:17;;;;;;;4.22;0.63;;;11.80;99.90;;;;;;4982738;28;20117;-84
2022/05/12 00:40:46;;;;;;;5.35;0.57;;;11.80;99.90;;;;;;4965845;28;20411;-84
2022/05/12 00:43:43;;;;;;;6.30;0.70;;;11.70;99.90;;;;;;4978051;28;20027;-84
2022/05/12 00:46:15;;;;;;;5.47;0.82;;;11.70;99.90;;;;;;4980511;28;20030;-84
2022/05/12 00:48:42;;;;;;;5.35;0.70;;;11.70;99.90;;;;;;4971007;28;20383;-84
2022/05/12 00:51:10;;;;;;;5.80;0.60;;;11.70;99.90;;;;;;4984883;28;20026;-84
2022/05/12 00:53:37;;;;;;;10.40;0.95;;;11.60;99.90;;;;;;4983365;28;20062;-84
2022/05/12 00:56:06;;;;;;;5.35;0.90;;;11.60;99.90;;;;;;4961784;28;20081;-84
2022/05/12 00:58:34;;;;;;;7.13;0.90;;;11.60;99.90;;;;;;4983450;28;20053;-84
2022/05/12 01:01:03;;;;;;;8.30;0.70;;;11.60;99.90;;;;;;4962241;28;20019;-84
2022/05/12 01:03:29;;;;;;;5.78;0.70;;;11.60;99.90;;;;;;4965426;28;20027;-84
2022/05/12 01:05:55;;;;;;;5.03;0.55;;;11.50;99.90;;;;;;4972620;28;20502;-83
2022/05/12 01:08:22;;;;;;;7.00;0.80;;;11.50;99.90;;;;;;4986323;28;20026;-85
2022/05/12 01:10:53;;;;;;;8.40;1.10;;;11.50;99.90;;;;;;4981378;28;20034;-84
2022/05/12 01:13:20;;;;;;;8.70;0.80;;;11.50;99.90;;;;;;4982354;28;20062;-84
2022/05/12 01:15:59;;;;;;;7.38;0.80;;;11.50;99.90;;;;;;4973484;28;20084;-83
2022/05/12 01:18:27;;;;;;;5.03;0.60;;;11.50;99.90;;;;;;4981833;28;20038;-84
2022/05/12 01:20:54;;;;;;;9.32;1.00;;;11.40;99.90;;;;;;4968546;28;20384;-85
2022/05/12 01:23:28;;;;;;;3.65;0.80;;;11.40;99.90;;;;;;4969836;28;20047;-84
2022/05/12 01:26:00;;;;;;;8.27;0.90;;;11.40;99.90;;;;;;4977754;28;20105;-84
2022/05/12 01:28:26;;;;;;;5.13;0.93;;;11.30;99.90;;;;;;4971824;28;20030;-84
2022/05/12 01:30:52;;;;;;;9.82;1.35;;;11.30;99.90;;;;;;4967519;28;20050;-83
2022/05/12 01:33:18;;;;;;;7.45;0.95;;;11.30;99.90;;;;;;4985087;28;20475;-84
2022/05/12 01:35:43;;;;;;;6.85;0.90;;;11.30;99.90;;;;;;4965674;28;20081;-84
2022/05/12 01:38:09;;;;;;;6.85;0.88;;;11.20;99.90;;;;;;4962103;28;20041;-84
2022/05/12 01:40:34;;;;;;;5.07;0.90;;;11.20;99.90;;;;;;4967414;28;20035;-82
2022/05/12 01:43:00;;;;;;;3.28;0.77;;;11.20;99.90;;;;;;4968271;28;20122;-84
2022/05/12 01:45:26;;;;;;;8.55;1.45;;;11.10;99.90;;;;;;4964955;28;20479;-83
2022/05/12 01:47:52;;;;;;;5.60;1.70;;;11.10;99.90;;;;;;4971732;28;20026;-84
2022/05/12 01:50:19;;;;;;;7.30;1.30;;;11.10;99.90;;;;;;4971328;28;20026;-84
2022/05/12 01:52:45;;;;;;;7.28;1.33;;;11.10;99.90;;;;;;4966890;28;20097;-83
2022/05/12 01:55:16;;;;;;;8.32;1.38;;;11.10;99.90;;;;;;4962939;28;20030;-84
2022/05/12 01:57:43;;;;;;;4.65;0.88;;;11.10;99.90;;;;;;4961970;28;20035;-84
2022/05/12 02:00:15;;;;;;;9.13;2.40;;;11.10;99.90;;;;;;4965120;28;20031;-83
2022/05/12 02:02:41;;;;;;;8.27;0.63;;;11.00;99.90;;;;;;4966748;28;20121;-83
2022/05/12 02:05:10;;;;;;;3.58;0.60;;;11.00;99.90;;;;;;4970756;28;20453;-84
2022/05/12 02:07:47;;;;;;;5.80;0.70;;;11.00;99.90;;;;;;4964216;28;20058;-84
2022/05/12 02:10:16;;;;;;;4.00;0.80;;;11.00;99.90;;;;;;4958210;28;20081;-84
2022/05/12 02:12:42;;;;;;;3.83;0.55;;;10.90;99.90;;;;;;4970642;28;20027;-84
2022/05/12 02:15:08;;;;;;;7.10;0.85;;;10.90;99.90;;;;;;4975847;28;20038;-84
2022/05/12 02:17:34;;;;;;;6.07;0.80;;;10.80;99.90;;;;;;4969583;28;20046;-84
2022/05/12 02:20:00;;;;;;;5.50;0.68;;;10.80;99.90;;;;;;4978545;28;20560;-84
2022/05/12 02:22:26;;;;;;;4.82;0.95;;;10.70;99.90;;;;;;4980487;28;20455;-84
2022/05/12 02:24:51;;;;;;;4.57;1.00;;;10.70;99.90;;;;;;4965163;28;20045;-83
2022/05/12 02:27:17;;;;;;;6.57;1.13;;;10.60;99.90;;;;;;4964036;28;20030;-84
2022/05/12 02:29:43;;;;;;;5.50;1.10;;;10.60;99.90;;;;;;4969567;28;20037;-84
2022/05/12 02:32:09;;;;;;;5.03;1.40;;;10.60;99.90;;;;;;4978951;28;20042;-84
2022/05/12 02:34:35;;;;;;;9.60;1.35;;;10.50;99.90;;;;;;4966466;28;20081;-84
2022/05/12 02:37:01;;;;;;;8.90;1.58;;;10.50;99.90;;;;;;4960668;28;20034;-84
2022/05/12 02:39:35;;;;;;;3.00;1.25;;;10.50;99.90;;;;;;4959424;28;20487;-84
2022/05/12 02:42:01;;;;;;;4.63;1.10;;;10.50;99.90;;;;;;4962060;28;20027;-84
2022/05/12 02:44:26;;;;;;;6.60;1.38;;;10.40;99.90;;;;;;4970784;28;20042;-83
2022/05/12 02:46:52;;;;;;;4.53;1.20;;;10.40;99.90;;;;;;4967427;28;20037;-84
2022/05/12 02:49:17;;;;;;;7.60;1.40;;;10.40;99.90;;;;;;4966107;28;20038;-84
2022/05/12 02:51:43;;;;;;;6.38;1.35;;;10.40;99.90;;;;;;4971619;28;20422;-84
2022/05/12 02:54:13;;;;;;;6.78;1.40;;;10.40;99.90;;;;;;4963363;28;20030;-84
2022/05/12 02:56:39;;;;;;;7.40;1.42;;;10.40;99.90;;;;;;4966419;28;20023;-83
2022/05/12 02:59:06;;;;;;;2.08;0.90;;;10.40;99.90;;;;;;4965944;28;20043;-84
2022/05/12 03:01:32;;;;;;;7.38;1.00;;;10.40;99.90;;;;;;4977918;28;20026;-84
2022/05/12 03:03:57;;;;;;;5.40;0.98;;;10.40;99.90;;;;;;4964588;28;20099;-84
2022/05/12 03:06:23;;;;;;;7.15;1.40;;;10.40;99.90;;;;;;4979397;28;20095;-84
2022/05/12 03:08:48;;;;;;;2.78;0.90;;;10.40;99.90;;;;;;4967447;28;20399;-83
2022/05/12 03:11:14;;;;;;;4.30;0.98;;;10.30;99.90;;;;;;4968431;28;20542;-84
2022/05/12 03:13:40;;;;;;;7.05;1.08;;;10.30;99.90;;;;;;4967389;28;20397;-84
2022/05/12 03:16:06;;;;;;;5.22;1.10;;;10.30;99.90;;;;;;4961939;28;20026;-84
2022/05/12 03:18:31;;;;;;;6.38;1.02;;;10.30;99.90;;;;;;4970019;28;20048;-84
2022/05/12 03:20:57;;;;;;;5.85;1.00;;;10.30;99.90;;;;;;4958784;28;20027;-84
2022/05/12 03:23:23;;;;;;;5.50;1.15;;;10.30;99.90;;;;;;4963067;28;20097;-85
2022/05/12 03:25:51;;;;;;;5.47;1.13;;;10.20;99.90;;;;;;4967807;28;20023;-84
2022/05/12 03:28:17;;;;;;;7.82;1.33;;;10.20;99.90;;;;;;4963246;28;20027;-83
2022/05/12 03:30:43;;;;;;;4.40;1.35;;;10.10;99.90;;;;;;4957890;28;20472;-83
2022/05/12 03:33:12;;;;;;;6.05;1.35;;;10.10;99.90;;;;;;4964057;28;20395;-84
2022/05/12 03:35:37;;;;;;;4.90;1.80;;;10.10;99.90;;;;;;4960123;28;20030;-83
2022/05/12 03:38:04;;;;;;;4.32;1.13;;;10.00;99.90;;;;;;4961118;28;20028;-83
2022/05/12 03:40:30;;;;;;;5.50;1.48;;;10.00;99.90;;;;;;4962216;28;20113;-83
2022/05/12 03:42:59;;;;;;;5.45;1.60;;;9.90;99.90;;;;;;4953900;28;20027;-84
2022/05/12 03:45:29;;;;;;;7.03;1.30;;;9.90;99.90;;;;;;4966431;28;20451;-84
2022/05/12 03:47:57;;;;;;;5.13;1.42;;;9.90;99.90;;;;;;4959659;28;20089;-84
2022/05/12 03:50:25;;;;;;;4.85;1.45;;;9.90;99.90;;;;;;4964033;28;20082;-84
2022/05/12 03:52:52;;;;;;;4.85;1.20;;;9.90;99.90;;;;;;4960977;28;20094;-84
2022/05/12 03:55:20;;;;;;;6.53;1.33;;;9.90;99.90;;;;;;4966381;28;20034;-84
2022/05/12 03:57:47;;;;;;;7.88;1.77;;;9.90;99.90;;;;;;4967591;28;20031;-84
2022/05/12 04:00:18;;;;;;;9.07;1.25;;;9.90;99.90;;;;;;4959886;28;20019;-84
2022/05/12 04:02:44;;;;;;;6.82;1.90;;;9.90;99.90;;;;;;4964465;28;20043;-84
2022/05/12 04:05:09;;;;;;;10.60;1.88;;;9.90;99.90;;;;;;4957643;28;20027;-84
2022/05/12 04:07:40;;;;;;;9.73;1.70;;;9.90;99.90;;;;;;4966911;28;20035;-84
2022/05/12 04:10:06;;;;;;;7.93;1.52;;;9.90;99.90;;;;;;4963436;28;20479;-82
2022/05/12 04:12:32;;;;;;;11.98;1.90;;;9.90;99.90;;;;;;4957101;28;20070;-84
2022/05/12 04:14:59;;;;;;;7.43;1.63;;;9.90;99.90;;;;;;4958280;28;20023;-83
2022/05/12 04:17:25;;;;;;;4.82;1.48;;;9.90;99.90;;;;;;4965504;28;20026;-84
2022/05/12 04:19:52;;;;;;;6.57;2.30;;;9.90;99.90;;;;;;4960684;28;20035;-84
2022/05/12 04:22:18;;;;;;;5.68;1.63;;;9.90;99.90;;;;;;4961846;28;20019;-84
2022/05/12 04:24:44;;;;;;;7.03;1.98;;;9.90;99.90;;;;;;4974230;28;20499;-85
2022/05/12 04:27:10;;;;;;;6.72;1.50;;;9.90;99.90;;;;;;4975196;28;20446;-84
2022/05/12 04:29:42;;;;;;;7.38;1.55;;;10.00;99.90;;;;;;4968900;28;20125;-83
2022/05/12 04:32:08;;;;;;;9.75;2.33;;;10.00;99.90;;;;;;4984140;28;20019;-84
2022/05/12 04:37:28;;;;;;;5.43;1.45;;;10.00;99.90;;;;;;4983575;28;20045;-84
2022/05/12 04:39:54;;;;;;;11.50;2.28;;;10.10;99.90;;;;;;4969600;28;20149;-84
2022/05/12 04:42:19;;;;;;;8.95;2.45;;;10.10;99.90;;;;;;4979142;28;20110;-84
2022/05/12 04:44:45;;;;;;;11.35;2.90;;;10.10;99.90;;;;;;4966906;28;20034;-83
2022/05/12 04:47:10;;;;;;;8.65;2.08;;;10.10;99.90;;;;;;4969153;28;20352;-84
2022/05/12 04:49:36;;;;;;;10.32;2.60;;;10.20;99.90;;;;;;4970308;28;20372;-83
2022/05/12 04:52:02;;;;;;;17.42;3.10;;;10.20;99.90;;;;;;4982695;28;20022;-83
2022/05/12 04:54:28;;;;;;;15.05;2.30;;;10.30;99.90;;;;;;4974875;28;20122;-83
2022/05/12 04:56:54;;;;;;;11.65;2.50;;;10.30;99.90;;;;;;4968479;28;20035;-84
2022/05/12 04:59:19;;;;;;;9.63;2.75;;;10.40;99.90;;;;;;4972668;28;20041;-83
2022/05/12 05:01:45;;;;;;;8.38;2.85;;;10.50;99.90;;;;;;4974726;28;20036;-84
2022/05/12 05:04:11;;;;;;;13.43;3.25;;;10.50;99.90;;;;;;4966969;28;20479;-84
2022/05/12 05:06:36;;;;;;;12.60;3.85;;;10.60;99.90;;;;;;4968196;28;20479;-83
2022/05/12 05:09:03;;;;;;;13.05;3.03;;;10.70;99.90;;;;;;4962472;28;20026;-84
2022/05/12 05:11:28;;;;;;;12.98;3.60;;;10.80;99.90;;;;;;4984908;28;20078;-84
2022/05/12 05:13:54;;;;;;;13.20;2.97;;;10.80;99.90;;;;;;4978551;28;20467;-83
2022/05/12 05:16:20;;;;;;;13.35;3.90;;;10.90;99.90;;;;;;4967115;28;20122;-83
2022/05/12 05:18:46;;;;;;;22.05;4.30;;;11.00;99.90;;;;;;4984176;28;20461;-83
2022/05/12 05:21:12;;;;;;;13.52;4.07;;;11.10;99.90;;;;;;4965424;28;20101;-84
2022/05/12 05:23:38;;;;;;;11.50;2.97;;;11.40;99.90;;;;;;4965452;28;20042;-83
2022/05/12 05:26:04;;;;;;;7.65;3.13;;;11.70;99.90;;;;;;4963184;28;20048;-84
2022/05/12 05:28:30;;;;;;;13.07;3.08;;;12.00;99.90;;;;;;4980381;28;20044;-82
2022/05/12 05:30:56;;;;;;;8.60;2.97;;;12.40;99.90;;;;;;4965310;28;20027;-83
2022/05/12 05:33:22;;;;;;;10.95;4.03;;;12.70;99.90;;;;;;4970997;28;20033;-83
2022/05/12 05:35:48;;;;;;;11.15;3.20;;;12.80;99.90;;;;;;4982205;28;20066;-83
2022/05/12 05:38:14;;;;;;;13.35;4.10;;;13.10;99.90;;;;;;4961738;28;20040;-83
2022/05/12 05:40:39;;;;;;;13.60;4.38;;;13.10;99.90;;;;;;4968843;28;20027;-83
2022/05/12 05:43:05;;;;;;;14.05;4.43;;;13.20;99.90;;;;;;4965250;28;20038;-83
2022/05/12 05:45:31;;;;;;;10.65;4.03;;;13.30;99.90;;;;;;4976359;28;20034;-83
2022/05/12 05:48:00;;;;;;;11.98;4.60;;;13.30;99.90;;;;;;4976466;28;20026;-83
2022/05/12 05:50:29;;;;;;;13.60;5.00;;;13.30;99.90;;;;;;4993352;28;20031;-83
2022/05/12 05:55:40;;;;;;;16.40;5.60;;;13.50;99.90;;;;;;4994445;28;20056;-83
2022/05/12 05:58:06;;;;;;;12.38;5.60;;;13.60;99.90;;;;;;4990231;28;20133;-83
2022/05/12 06:00:34;;;;;;;14.27;5.68;;;13.70;99.90;;;;;;4980914;28;20131;-83
2022/05/12 06:03:00;;;;;;;10.88;5.47;;;13.80;99.90;;;;;;4986296;28;20034;-82
2022/05/12 06:05:25;;;;;;;22.25;8.55;;;13.80;99.90;;;;;;4967319;28;20521;-83
2022/05/12 06:07:53;;;;;;;17.10;6.80;;;13.80;99.90;;;;;;4967272;28;20479;-83
2022/05/12 06:10:18;;;;;;;20.88;9.45;;;13.80;99.90;;;;;;4971404;28;20041;-83
2022/05/12 06:12:44;;;;;;;20.13;6.93;;;13.80;99.90;;;;;;4993147;28;20394;-83
2022/05/12 06:15:10;;;;;;;15.77;6.90;;;13.90;99.90;;;;;;4975849;28;20442;-83
2022/05/12 06:17:36;;;;;;;16.10;6.88;;;14.00;99.90;;;;;;4994013;28;20031;-84
2022/05/12 06:20:06;;;;;;;16.50;7.10;;;14.10;99.90;;;;;;4962833;28;20100;-84
2022/05/12 06:22:32;;;;;;;14.55;6.78;;;14.10;99.90;;;;;;4968034;28;20030;-83
2022/05/12 06:24:57;;;;;;;14.25;5.78;;;14.20;99.90;;;;;;4974731;28;20038;-84
2022/05/12 06:27:23;;;;;;;11.90;5.63;;;14.30;99.90;;;;;;4966157;28;20398;-84
2022/05/12 06:29:49;;;;;;;18.88;6.63;;;14.20;99.90;;;;;;4992556;28;20101;-84
2022/05/12 06:32:17;;;;;;;19.25;6.90;;;14.20;99.90;;;;;;4973312;28;20026;-83
2022/05/12 06:34:42;;;;;;;15.38;6.07;;;14.20;99.90;;;;;;4971247;28;20034;-84
2022/05/12 06:37:10;;;;;;;23.48;6.35;;;14.20;99.90;;;;;;4976087;28;20493;-83
2022/05/12 06:39:36;;;;;;;14.35;4.57;;;14.30;99.90;;;;;;4959186;28;20043;-83
2022/05/12 06:42:01;;;;;;;15.93;5.53;;;14.30;99.90;;;;;;4960566;28;20399;-84
2022/05/12 06:44:27;;;;;;;13.27;4.70;;;14.40;99.90;;;;;;4968751;28;20046;-83
2022/05/12 06:46:53;;;;;;;18.75;5.65;;;14.40;99.90;;;;;;4969178;28;20549;-83
2022/05/12 06:49:19;;;;;;;13.63;5.05;;;14.40;99.90;;;;;;4974854;28;20605;-83
2022/05/12 06:51:45;;;;;;;15.15;5.43;;;14.50;99.90;;;;;;4975834;28;20030;-82
2022/05/12 06:54:11;;;;;;;13.40;5.45;;;14.50;99.90;;;;;;4967335;28;20411;-82
2022/05/12 06:56:36;;;;;;;13.20;5.57;;;14.50;99.90;;;;;;4967088;28;20070;-83
2022/05/12 06:59:03;;;;;;;17.80;5.60;;;14.60;99.90;;;;;;4968846;28;20510;-82
2022/05/12 07:01:28;;;;;;;12.10;5.53;;;14.60;99.90;;;;;;4986584;28;20097;-83
2022/05/12 07:03:57;;;;;;;13.73;5.45;;;14.70;99.90;;;;;;4988604;28;20070;-83
2022/05/12 07:06:22;;;;;;;11.25;5.05;;;14.80;99.90;;;;;;4975408;28;20022;-83
2022/05/12 07:08:48;;;;;;;11.85;5.55;;;14.80;99.90;;;;;;4979271;28;20388;-83
2022/05/12 07:11:14;;;;;;;14.63;5.75;;;14.90;99.90;;;;;;4970179;28;20026;-81
2022/05/12 07:13:40;;;;;;;15.63;5.35;;;14.90;99.90;;;;;;4971862;28;20037;-83
2022/05/12 07:16:07;;;;;;;11.77;4.85;;;15.00;99.90;;;;;;4972568;28;20046;-83
2022/05/12 07:18:34;;;;;;;11.50;5.30;;;15.00;99.90;;;;;;4972429;28;20076;-83
2022/05/12 07:26:35;;;;;;;15.73;5.55;;;15.20;99.90;;;;;;4987656;28;20049;-83
2022/05/12 07:29:01;;;;;;;15.48;4.90;;;15.30;99.90;;;;;;4968977;28;20041;-83
2022/05/12 07:31:27;;;;;;;11.85;4.95;;;15.40;99.90;;;;;;4975304;28;20019;-83
2022/05/12 07:33:52;;;;;;;11.93;4.68;;;15.50;99.90;;;;;;4969938;28;20027;-83
2022/05/12 07:36:31;;;;;;;12.93;4.82;;;15.60;99.90;;;;;;4973825;28;20112;-82
2022/05/12 07:38:56;;;;;;;8.60;3.85;;;15.70;99.90;;;;;;4970071;28;20038;-83
2022/05/12 07:41:23;;;;;;;10.95;5.05;;;15.80;99.90;;;;;;4963642;28;20030;-83
2022/05/12 07:43:49;;;;;;;14.13;4.78;;;15.80;99.90;;;;;;4973610;28;20109;-83
2022/05/12 07:46:17;;;;;;;9.23;3.90;;;15.80;99.90;;;;;;4970442;28;20054;-83
2022/05/12 07:48:42;;;;;;;13.85;4.75;;;15.90;99.90;;;;;;4985610;28;20041;-83
2022/05/12 07:51:09;;;;;;;8.77;4.28;;;15.90;99.90;;;;;;4969424;28;20093;-82
2022/05/12 07:53:37;;;;;;;10.50;4.15;;;16.00;99.90;;;;;;4958605;28;20049;-82
2022/05/12 07:56:03;;;;;;;12.80;4.43;;;16.10;99.90;;;;;;4987589;28;20166;-83
2022/05/12 07:58:30;;;;;;;9.65;3.97;;;16.20;99.90;;;;;;4989737;28;20490;-82
2022/05/12 08:00:55;;;;;;;10.15;3.67;;;16.20;99.90;;;;;;4994064;28;20062;-83
2022/05/12 08:03:22;;;;;;;6.13;3.20;;;16.30;99.90;;;;;;4988881;28;20058;-81
2022/05/12 08:05:48;;;;;;;10.60;3.47;;;16.40;99.90;;;;;;4977584;28;20054;-83
2022/05/12 08:08:13;;;;;;;8.35;3.25;;;16.50;99.90;;;;;;4978655;28;20057;-83
2022/05/12 08:10:39;;;;;;;6.85;3.40;;;16.50;99.90;;;;;;4978427;28;20023;-83
2022/05/12 08:13:06;;;;;;;13.38;3.88;;;16.60;99.90;;;;;;4987152;28;20039;-82
2022/05/12 08:15:31;;;;;;;7.50;3.03;;;16.60;99.90;;;;;;4977818;28;20026;-83
2022/05/12 08:17:57;;;;;;;8.63;3.60;;;16.60;99.90;;;;;;4968180;28;20577;-83
2022/05/12 08:20:24;;;;;;;12.15;3.53;;;16.60;99.90;;;;;;4975349;28;20367;-83
2022/05/12 08:22:50;;;;;;;10.95;3.28;;;16.50;99.90;;;;;;4978312;28;20402;-83
2022/05/12 08:25:16;;;;;;;6.50;2.08;;;16.30;99.90;;;;;;4973318;28;20084;-83
2022/05/12 08:27:42;;;;;;;6.75;2.10;;;16.20;99.90;;;;;;4971464;28;20483;-83
2022/05/12 08:30:11;;;;;;;9.57;2.40;;;16.20;99.90;;;;;;4977359;28;20030;-82
2022/05/12 08:32:37;;;;;;;5.60;1.73;;;16.10;99.90;;;;;;4973102;28;20031;-82
2022/05/12 08:35:03;;;;;;;4.57;1.70;;;16.20;99.90;;;;;;4959371;28;20372;-83
2022/05/12 08:37:28;;;;;;;4.93;1.90;;;16.40;99.90;;;;;;4974099;28;20110;-83
2022/05/12 08:39:56;;;;;;;5.72;1.48;;;16.60;99.90;;;;;;4971732;28;20514;-82
2022/05/12 08:42:33;;;;;;;9.25;2.80;;;16.70;99.90;;;;;;4962275;28;20387;-82
2022/05/12 08:45:03;;;;;;;9.57;1.52;;;16.80;99.90;;;;;;4981356;28;20031;-83
2022/05/12 08:47:35;;;;;;;4.78;1.08;;;16.80;99.40;;;;;;4976071;28;20022;-82
2022/05/12 08:50:02;;;;;;;6.15;0.70;;;16.90;99.20;;;;;;4977226;28;20117;-82
2022/05/12 08:52:44;;;;;;;3.80;0.70;;;16.90;96.80;;;;;;4977848;28;20030;-83
2022/05/12 08:55:21;;;;;;;;;;;16.70;96.50;;;;;;4993747;28;20180;-82
2022/05/12 08:58:15;;;;;;;3.80;0.98;;;16.70;96.70;;;;;;4964218;28;19989;-83
2022/05/12 09:01:07;;;;;;;3.47;1.00;;;16.70;96.20;;;;;;4971426;28;20120;-83
2022/05/12 09:04:12;;;;;;;5.57;0.80;;;16.80;96.10;;;;;;4969875;28;20066;-83
2022/05/12 09:06:55;;;;;;;7.18;0.80;;;16.90;95.60;;;;;;4975521;28;20129;-83
2022/05/12 09:09:30;;;;;;;;;;;17.10;95.50;;;;;;4979781;28;20093;-83
2022/05/12 09:12:26;;;;;;;6.13;1.15;;;17.30;95.80;;;;;;4973670;28;19913;-82
2022/05/12 09:15:04;;;;;;;6.00;0.90;;;17.50;94.30;;;;;;4981129;28;20038;-83
2022/05/12 09:17:39;;;;;;;3.45;0.70;;;17.70;93.30;;;;;;4967869;28;20054;-83
2022/05/12 09:20:09;;;;;;;5.00;0.77;;;17.80;93.30;;;;;;4961698;28;20053;-83
2022/05/12 09:22:35;;;;;;;2.60;0.50;;;18.00;92.50;;;;;;4965979;28;20046;-84
2022/05/12 09:25:00;;;;;;;2.45;0.47;;;18.00;91.40;;;;;;4974370;28;20030;-83
2022/05/12 09:27:38;;;;;;;2.97;0.60;;;18.00;91.40;;;;;;4994596;28;20022;-83
2022/05/12 09:30:08;;;;;;;2.38;0.40;;;18.10;91.60;;;;;;4972780;28;20117;-82
2022/05/12 09:32:37;;;;;;;2.95;0.55;;;18.30;90.10;;;;;;4974160;28;20024;-83
2022/05/12 09:35:24;;;;;;;4.10;0.63;;;18.50;89.10;;;;;;4972930;28;20058;-83
2022/05/12 09:37:51;;;;;;;4.68;0.50;;;18.70;89.20;;;;;;4974981;28;20030;-83
2022/05/12 09:40:22;;;;;;;3.45;0.60;;;18.80;86.70;;;;;;4990181;28;20109;-82
2022/05/12 09:42:51;;;;;;;3.75;0.43;;;18.90;86.00;;;;;;4975720;28;20026;-82
2022/05/12 09:45:32;;;;;;;3.83;0.52;;;19.00;85.90;;;;;;4977100;28;20022;-83
2022/05/12 09:48:19;;;;;;;4.53;0.50;;;19.10;82.80;;;;;;4972853;28;20439;-82
2022/05/12 09:50:47;;;;;;;2.45;0.40;;;19.10;81.20;;;;;;4968867;28;20022;-83
2022/05/12 09:53:22;;;;;;;2.80;0.50;;;19.10;80.90;;;;;;4976633;28;20026;-83
2022/05/12 09:56:04;;;;;;;5.93;0.40;;;19.10;79.60;;;;;;4984402;28;20065;-83
2022/05/12 09:58:41;;;;;;;2.40;0.30;;;19.00;79.00;;;;;;4973639;28;20030;-82
2022/05/12 10:01:48;;;;;;;4.28;0.35;;;19.00;78.60;;;;;;4970133;28;20036;-82
2022/05/12 10:10:23;;;;;;;4.95;0.80;;;19.10;72.90;;;;;;4964129;28;20034;-83
2022/05/12 10:13:03;;;;;;;5.13;0.50;;;19.20;74.60;;;;;;4964061;28;20403;-83
2022/05/12 10:15:36;;;;;;;3.17;0.50;;;19.30;73.80;;;;;;4959162;28;20027;-83
2022/05/12 10:18:25;;;;;;;1.70;0.20;;;19.40;72.60;;;;;;4970939;28;20117;-84
2022/05/12 10:20:53;;;;;;;2.78;0.80;;;19.40;74.10;;;;;;4964969;28;20030;-83
2022/05/12 10:23:47;;;;;;;2.22;0.40;;;19.40;73.90;;;;;;4976092;28;20101;-84
2022/05/12 10:26:20;;;;;;;2.42;0.30;;;19.50;71.80;;;;;;4972597;28;20096;-84
2022/05/12 10:29:27;;;;;;;3.03;0.25;;;19.30;71.10;;;;;;4966852;28;20030;-84
2022/05/12 10:32:21;;;;;;;2.33;0.30;;;19.20;70.50;;;;;;4983817;28;20490;-84
2022/05/12 10:35:10;;;;;;;3.65;0.30;;;19.20;70.10;;;;;;4961364;28;20026;-84
2022/05/12 10:38:04;;;;;;;2.47;0.40;;;19.30;69.70;;;;;;4976006;28;20034;-82
2022/05/12 10:40:43;;;;;;;2.38;0.30;;;19.50;67.70;;;;;;4987581;28;20080;-83
2022/05/12 10:43:59;;;;;;;1.58;0.30;;;19.50;67.70;;;;;;4981147;28;20030;-83
2022/05/12 10:46:50;;;;;;;5.22;0.47;;;19.70;67.70;;;;;;4898299;29;20036;-82
2022/05/12 10:49:41;;;;;;;2.25;0.30;;;19.80;66.20;;;;;;4894905;29;20029;-83
2022/05/12 10:52:21;;;;;;;3.13;0.40;;;19.70;67.10;;;;;;4946031;28;20380;-82
2022/05/12 10:55:14;;;;;;;3.50;0.30;;;19.60;65.20;;;;;;4975682;28;20033;-82
2022/05/12 10:58:05;;;;;;;1.20;0.20;;;19.60;64.60;;;;;;4977174;28;20464;-83
2022/05/12 11:00:42;;;;;;;2.58;0.40;;;19.70;65.10;;;;;;4990631;28;20039;-83
2022/05/12 11:03:26;;;;;;;3.78;0.43;;;19.70;64.60;;;;;;4975505;28;20058;-83
2022/05/12 11:05:59;;;;;;;1.30;0.30;;;19.70;65.40;;;;;;4975406;28;20506;-81
2022/05/12 11:08:34;;;;;;;3.38;0.40;;;19.70;67.10;;;;;;4975539;28;20029;-84
2022/05/12 11:11:06;;;;;;;1.98;0.30;;;19.80;66.40;;;;;;4968354;28;20076;-84
2022/05/12 11:13:39;;;;;;;4.60;0.32;;;19.80;65.50;;;;;;4973199;28;20068;-84
2022/05/12 11:16:15;;;;;;;4.03;0.50;;;19.70;66.10;;;;;;4966769;28;20049;-85
2022/05/12 11:19:02;;;;;;;2.10;0.40;;;19.60;66.00;;;;;;4975246;28;20031;-84
2022/05/12 11:21:30;;;;;;;5.13;0.43;;;19.60;66.10;;;;;;4971958;28;20034;-85
2022/05/12 11:24:17;;;;;;;4.03;0.40;;;19.60;65.90;;;;;;4968177;28;20138;-84
2022/05/12 11:27:00;;;;;;;1.67;0.30;;;19.70;64.70;;;;;;4971824;28;20026;-85
2022/05/12 11:29:54;;;;;;;1.85;0.30;;;19.50;64.90;;;;;;4956379;28;20027;-84
2022/05/12 11:32:26;;;;;;;1.92;0.40;;;19.60;64.90;;;;;;4960601;28;20030;-84
2022/05/12 11:34:54;;;;;;;;;;;19.70;64.20;;;;;;4971387;28;20037;-83
2022/05/12 11:37:50;;;;;;;1.58;0.30;;;19.80;64.40;;;;;;4977203;28;19909;-84
2022/05/12 11:40:44;;;;;;;4.15;0.30;;;19.80;63.80;;;;;;4974109;28;20050;-84
2022/05/12 11:46:55;;;;;;;2.42;0.32;;;19.90;63.90;;;;;;4996767;28;20037;-84
2022/05/12 11:49:31;;;;;;;4.13;0.30;;;19.80;62.60;;;;;;4978171;28;20368;-85
2022/05/12 11:52:29;;;;;;;1.65;0.32;;;19.60;62.80;;;;;;4967074;28;20537;-85
2022/05/12 11:54:59;;;;;;;3.45;0.32;;;19.60;62.80;;;;;;4982283;28;20113;-84
2022/05/12 11:57:26;;;;;;;3.63;0.30;;;19.60;62.40;;;;;;4995796;28;20121;-84
2022/05/12 11:59:57;;;;;;;1.98;0.30;;;19.50;62.50;;;;;;4978192;28;20042;-84
2022/05/12 12:02:28;;;;;;;1.60;0.30;;;19.60;63.00;;;;;;4995499;28;20025;-84
2022/05/12 12:04:56;;;;;;;2.17;0.30;;;19.70;63.10;;;;;;4982633;28;20062;-84
2022/05/12 12:07:31;;;;;;;2.63;0.40;;;19.80;62.90;;;;;;4977416;28;20030;-84
2022/05/12 12:10:25;;;;;;;2.45;0.30;;;19.90;62.60;;;;;;4987757;28;20085;-84
2022/05/12 12:12:56;;;;;;;2.60;0.40;;;20.00;62.30;;;;;;4964469;28;20476;-83
2022/05/12 12:15:30;;;;;;;2.28;0.30;;;20.00;62.30;;;;;;4985555;28;20493;-84
2022/05/12 12:18:00;;;;;;;2.88;0.40;;;20.10;62.70;;;;;;4990413;28;20038;-84
2022/05/12 12:20:29;;;;;;;1.48;0.30;;;20.20;61.60;;;;;;4994470;28;20065;-84
2022/05/12 12:22:57;;;;;;;2.75;0.30;;;20.20;61.30;;;;;;4977370;28;20038;-82
2022/05/12 12:25:31;;;;;;;2.40;0.40;;;20.20;61.30;;;;;;4978065;28;20076;-84
2022/05/12 12:28:05;;;;;;;1.77;0.38;;;20.30;62.50;;;;;;4977773;28;20022;-84
2022/05/12 12:30:36;;;;;;;3.47;0.38;;;20.20;60.60;;;;;;4973834;28;20029;-84
2022/05/12 12:33:17;;;;;;;1.33;0.28;;;20.20;61.30;;;;;;4972659;28;20117;-84
2022/05/12 12:36:00;;;;;;;2.22;0.32;;;20.20;61.40;;;;;;4959696;28;20030;-84
2022/05/12 12:38:44;;;;;;;2.45;0.30;;;20.20;61.50;;;;;;4977680;28;20129;-85
2022/05/12 12:41:15;;;;;;;2.60;0.40;;;20.50;62.00;;;;;;4989997;28;20041;-83
2022/05/12 12:43:46;;;;;;;3.20;0.40;;;20.80;62.40;;;;;;4977551;28;20050;-84
2022/05/12 12:46:49;;;;;;;2.72;0.40;;;21.10;62.10;;;;;;4977504;28;20487;-84
2022/05/12 12:49:22;;;;;;;4.78;0.47;;;21.50;61.50;;;;;;4977512;28;20137;-84
2022/05/12 12:51:57;;;;;;;3.38;0.40;;;21.60;59.70;;;;;;4970373;28;20026;-83
2022/05/12 12:57:39;;;;;;;3.67;0.38;;;21.50;58.60;;;;;;4980067;28;20090;-84
2022/05/12 13:00:09;;;;;;;4.47;0.40;;;21.30;58.20;;;;;;4976894;28;20407;-83
2022/05/12 13:02:40;;;;;;;2.70;0.40;;;21.30;58.50;;;;;;4976162;28;20025;-84
2022/05/12 13:05:10;;;;;;;5.90;0.50;;;21.40;58.60;;;;;;4977210;28;20497;-84
2022/05/12 13:07:37;;;;;;;1.75;0.40;;;21.40;58.30;;;;;;4992447;28;20026;-84
2022/05/12 13:10:16;;;;;;;3.70;0.38;;;21.40;58.10;;;;;;4959853;28;20483;-84
2022/05/12 13:13:10;;;;;;;2.42;0.40;;;21.30;58.30;;;;;;4994615;28;20061;-84
2022/05/12 13:15:39;;;;;;;2.58;0.40;;;21.10;58.10;;;;;;4989046;28;20069;-84
2022/05/12 13:18:08;;;;;;;2.30;0.30;;;20.90;58.50;;;;;;4976097;28;20038;-85
2022/05/12 13:20:41;;;;;;;2.92;0.30;;;20.90;58.50;;;;;;4977303;28;20042;-84
2022/05/12 13:23:14;;;;;;;2.33;0.40;;;21.00;58.40;;;;;;4972456;28;20038;-84
2022/05/12 13:25:41;;;;;;;3.22;0.50;;;21.10;58.40;;;;;;4993398;28;20061;-84
2022/05/12 13:28:18;;;;;;;2.45;0.40;;;20.90;58.40;;;;;;4976442;28;20037;-84